sensor_id;sensor_type;location;lat;lon;timestamp;P1;durP1;ratioP1;P2;durP2;ratioP2
15340;SDS011;7770;52.158;5.372;2022-09-09T00:00:21;3.83;;;3.37;;
15340;SDS011;7770;52.158;5.372;2022-09-09T00:03:17;4.10;;;3.60;;
15340;SDS011;7770;52.158;5.372;2022-09-09T00:06:10;4.40;;;3.70;;
15340;SDS011;7770;52.158;5.372;2022-09-09T00:09:08;5.63;;;3.80;;
15340;SDS011;7770;52.158;5.372;2022-09-09T00:12:11;4.13;;;3.73;;
15340;SDS011;7770;52.158;5.372;2022-09-09T00:15:13;4.60;;;3.87;;
15340;SDS011;7770;52.158;5.372;2022-09-09T00:21:33;5.93;;;4.27;;
15340;SDS011;7770;52.158;5.372;2022-09-09T00:27:49;5.93;;;4.27;;
15340;SDS011;7770;52.158;5.372;2022-09-09T00:30:37;5.10;;;4.60;;
15340;SDS011;7770;52.158;5.372;2022-09-09T00:33:24;5.77;;;4.73;;
15340;SDS011;7770;52.158;5.372;2022-09-09T00:36:13;5.07;;;4.57;;
15340;SDS011;7770;52.158;5.372;2022-09-09T00:39:02;5.30;;;4.87;;
15340;SDS011;7770;52.158;5.372;2022-09-09T00:45:52;7.33;;;5.57;;
15340;SDS011;7770;52.158;5.372;2022-09-09T00:49:00;5.57;;;5.07;;
15340;SDS011;7770;52.158;5.372;2022-09-09T00:52:30;6.07;;;5.47;;
15340;SDS011;7770;52.158;5.372;2022-09-09T00:56:11;6.60;;;6.00;;
15340;SDS011;7770;52.158;5.372;2022-09-09T00:59:12;7.60;;;6.70;;
15340;SDS011;7770;52.158;5.372;2022-09-09T01:02:24;7.37;;;6.67;;
15340;SDS011;7770;52.158;5.372;2022-09-09T01:05:20;9.23;;;7.07;;
15340;SDS011;7770;52.158;5.372;2022-09-09T01:11:33;9.77;;;7.17;;
15340;SDS011;7770;52.158;5.372;2022-09-09T01:17:28;7.20;;;6.50;;
15340;SDS011;7770;52.158;5.372;2022-09-09T01:20:28;9.87;;;7.67;;
15340;SDS011;7770;52.158;5.372;2022-09-09T01:23:29;7.83;;;7.13;;
15340;SDS011;7770;52.158;5.372;2022-09-09T01:26:37;8.40;;;7.20;;
15340;SDS011;7770;52.158;5.372;2022-09-09T01:29:30;7.77;;;7.03;;
15340;SDS011;7770;52.158;5.372;2022-09-09T01:32:39;7.90;;;7.10;;
15340;SDS011;7770;52.158;5.372;2022-09-09T01:38:45;8.43;;;7.63;;
15340;SDS011;7770;52.158;5.372;2022-09-09T01:41:32;8.00;;;7.30;;
15340;SDS011;7770;52.158;5.372;2022-09-09T01:44:18;8.60;;;7.70;;
15340;SDS011;7770;52.158;5.372;2022-09-09T01:47:05;8.97;;;7.73;;
15340;SDS011;7770;52.158;5.372;2022-09-09T01:49:52;13.33;;;8.60;;
15340;SDS011;7770;52.158;5.372;2022-09-09T01:52:38;10.27;;;8.40;;
15340;SDS011;7770;52.158;5.372;2022-09-09T01:55:38;9.60;;;8.60;;
15340;SDS011;7770;52.158;5.372;2022-09-09T01:58:31;9.53;;;8.60;;
15340;SDS011;7770;52.158;5.372;2022-09-09T02:01:51;8.63;;;7.83;;
15340;SDS011;7770;52.158;5.372;2022-09-09T02:05:14;9.87;;;8.80;;
15340;SDS011;7770;52.158;5.372;2022-09-09T02:08:15;10.07;;;9.07;;
15340;SDS011;7770;52.158;5.372;2022-09-09T02:14:05;11.47;;;10.27;;
15340;SDS011;7770;52.158;5.372;2022-09-09T02:17:03;14.30;;;10.77;;
15340;SDS011;7770;52.158;5.372;2022-09-09T02:19:58;13.30;;;10.53;;
15340;SDS011;7770;52.158;5.372;2022-09-09T02:22:54;13.73;;;10.73;;
15340;SDS011;7770;52.158;5.372;2022-09-09T02:25:41;12.17;;;10.87;;
15340;SDS011;7770;52.158;5.372;2022-09-09T02:28:29;15.23;;;11.80;;
15340;SDS011;7770;52.158;5.372;2022-09-09T02:31:18;12.87;;;11.53;;
15340;SDS011;7770;52.158;5.372;2022-09-09T02:34:07;12.00;;;10.80;;
15340;SDS011;7770;52.158;5.372;2022-09-09T02:36:56;12.37;;;11.07;;
15340;SDS011;7770;52.158;5.372;2022-09-09T02:39:45;13.60;;;11.90;;
15340;SDS011;7770;52.158;5.372;2022-09-09T02:42:32;13.30;;;12.00;;
15340;SDS011;7770;52.158;5.372;2022-09-09T02:45:28;14.97;;;12.03;;
15340;SDS011;7770;52.158;5.372;2022-09-09T02:48:30;12.87;;;11.60;;
15340;SDS011;7770;52.158;5.372;2022-09-09T02:54:26;14.13;;;12.57;;
15340;SDS011;7770;52.158;5.372;2022-09-09T02:57:25;13.90;;;12.50;;
15340;SDS011;7770;52.158;5.372;2022-09-09T03:00:14;14.73;;;13.17;;
15340;SDS011;7770;52.158;5.372;2022-09-09T03:03:01;16.03;;;13.30;;
15340;SDS011;7770;52.158;5.372;2022-09-09T03:05:49;15.60;;;13.60;;
15340;SDS011;7770;52.158;5.372;2022-09-09T03:08:35;16.40;;;13.63;;
15340;SDS011;7770;52.158;5.372;2022-09-09T03:11:21;16.07;;;13.60;;
15340;SDS011;7770;52.158;5.372;2022-09-09T03:14:07;16.43;;;14.40;;
15340;SDS011;7770;52.158;5.372;2022-09-09T03:16:53;17.50;;;15.60;;
15340;SDS011;7770;52.158;5.372;2022-09-09T03:19:39;18.40;;;16.40;;
15340;SDS011;7770;52.158;5.372;2022-09-09T03:22:26;17.80;;;15.80;;
15340;SDS011;7770;52.158;5.372;2022-09-09T03:25:12;18.43;;;16.10;;
15340;SDS011;7770;52.158;5.372;2022-09-09T03:27:58;18.43;;;16.60;;
15340;SDS011;7770;52.158;5.372;2022-09-09T03:30:44;19.60;;;17.47;;
15340;SDS011;7770;52.158;5.372;2022-09-09T03:33:30;18.43;;;16.53;;
15340;SDS011;7770;52.158;5.372;2022-09-09T03:36:16;19.63;;;17.63;;
15340;SDS011;7770;52.158;5.372;2022-09-09T03:39:02;19.83;;;17.73;;
15340;SDS011;7770;52.158;5.372;2022-09-09T03:41:49;20.70;;;18.50;;
15340;SDS011;7770;52.158;5.372;2022-09-09T03:44:35;20.53;;;18.37;;
15340;SDS011;7770;52.158;5.372;2022-09-09T03:47:21;21.13;;;19.00;;
15340;SDS011;7770;52.158;5.372;2022-09-09T03:50:07;21.20;;;18.83;;
15340;SDS011;7770;52.158;5.372;2022-09-09T03:52:55;21.67;;;18.83;;
15340;SDS011;7770;52.158;5.372;2022-09-09T03:55:48;21.63;;;19.47;;
15340;SDS011;7770;52.158;5.372;2022-09-09T03:58:39;20.73;;;18.73;;
15340;SDS011;7770;52.158;5.372;2022-09-09T04:01:26;21.90;;;19.53;;
15340;SDS011;7770;52.158;5.372;2022-09-09T04:04:12;21.40;;;19.17;;
15340;SDS011;7770;52.158;5.372;2022-09-09T04:06:58;21.10;;;18.93;;
15340;SDS011;7770;52.158;5.372;2022-09-09T04:09:44;22.73;;;19.73;;
15340;SDS011;7770;52.158;5.372;2022-09-09T04:12:31;23.80;;;19.33;;
15340;SDS011;7770;52.158;5.372;2022-09-09T04:15:17;22.57;;;20.17;;
15340;SDS011;7770;52.158;5.372;2022-09-09T04:18:03;24.07;;;21.20;;
15340;SDS011;7770;52.158;5.372;2022-09-09T04:20:50;23.73;;;20.43;;
15340;SDS011;7770;52.158;5.372;2022-09-09T04:23:37;23.77;;;21.27;;
15340;SDS011;7770;52.158;5.372;2022-09-09T04:26:24;26.00;;;21.23;;
15340;SDS011;7770;52.158;5.372;2022-09-09T04:29:10;23.37;;;20.97;;
15340;SDS011;7770;52.158;5.372;2022-09-09T04:31:56;23.97;;;21.13;;
15340;SDS011;7770;52.158;5.372;2022-09-09T04:34:42;22.40;;;20.17;;
15340;SDS011;7770;52.158;5.372;2022-09-09T04:37:28;23.13;;;20.80;;
15340;SDS011;7770;52.158;5.372;2022-09-09T04:40:14;22.27;;;20.07;;
15340;SDS011;7770;52.158;5.372;2022-09-09T04:43:01;23.50;;;19.47;;
15340;SDS011;7770;52.158;5.372;2022-09-09T04:45:51;21.20;;;18.93;;
15340;SDS011;7770;52.158;5.372;2022-09-09T04:48:37;20.83;;;18.73;;
15340;SDS011;7770;52.158;5.372;2022-09-09T04:51:24;21.83;;;18.60;;
15340;SDS011;7770;52.158;5.372;2022-09-09T04:54:10;20.23;;;18.23;;
15340;SDS011;7770;52.158;5.372;2022-09-09T04:56:56;21.13;;;17.60;;
15340;SDS011;7770;52.158;5.372;2022-09-09T04:59:42;19.40;;;17.40;;
15340;SDS011;7770;52.158;5.372;2022-09-09T05:02:29;20.00;;;17.37;;
15340;SDS011;7770;52.158;5.372;2022-09-09T05:05:15;19.47;;;16.80;;
15340;SDS011;7770;52.158;5.372;2022-09-09T05:08:02;18.03;;;15.93;;
15340;SDS011;7770;52.158;5.372;2022-09-09T05:10:50;18.43;;;16.43;;
15340;SDS011;7770;52.158;5.372;2022-09-09T05:13:36;19.90;;;15.80;;
15340;SDS011;7770;52.158;5.372;2022-09-09T05:16:22;20.33;;;15.60;;
15340;SDS011;7770;52.158;5.372;2022-09-09T05:19:08;18.03;;;15.57;;
15340;SDS011;7770;52.158;5.372;2022-09-09T05:21:54;17.90;;;15.27;;
15340;SDS011;7770;52.158;5.372;2022-09-09T05:24:40;16.20;;;14.50;;
15340;SDS011;7770;52.158;5.372;2022-09-09T05:27:26;16.70;;;14.90;;
15340;SDS011;7770;52.158;5.372;2022-09-09T05:30:12;16.57;;;14.77;;
15340;SDS011;7770;52.158;5.372;2022-09-09T05:32:58;17.23;;;14.53;;
15340;SDS011;7770;52.158;5.372;2022-09-09T05:35:45;15.73;;;13.80;;
15340;SDS011;7770;52.158;5.372;2022-09-09T05:38:31;16.57;;;14.80;;
15340;SDS011;7770;52.158;5.372;2022-09-09T05:41:20;17.40;;;14.00;;
15340;SDS011;7770;52.158;5.372;2022-09-09T05:44:08;16.13;;;14.23;;
15340;SDS011;7770;52.158;5.372;2022-09-09T05:46:54;18.50;;;13.63;;
15340;SDS011;7770;52.158;5.372;2022-09-09T05:49:40;16.30;;;13.40;;
15340;SDS011;7770;52.158;5.372;2022-09-09T05:52:26;17.47;;;13.90;;
15340;SDS011;7770;52.158;5.372;2022-09-09T05:55:12;15.83;;;13.23;;
15340;SDS011;7770;52.158;5.372;2022-09-09T05:57:58;15.40;;;12.73;;
15340;SDS011;7770;52.158;5.372;2022-09-09T06:00:45;13.80;;;12.13;;
15340;SDS011;7770;52.158;5.372;2022-09-09T06:03:31;14.43;;;12.03;;
15340;SDS011;7770;52.158;5.372;2022-09-09T06:06:21;12.83;;;11.30;;
15340;SDS011;7770;52.158;5.372;2022-09-09T06:09:11;14.77;;;11.40;;
15340;SDS011;7770;52.158;5.372;2022-09-09T06:11:57;11.90;;;10.57;;
15340;SDS011;7770;52.158;5.372;2022-09-09T06:14:43;13.67;;;11.27;;
15340;SDS011;7770;52.158;5.372;2022-09-09T06:17:29;15.00;;;11.33;;
15340;SDS011;7770;52.158;5.372;2022-09-09T06:20:15;14.60;;;10.77;;
15340;SDS011;7770;52.158;5.372;2022-09-09T06:23:01;12.70;;;9.87;;
15340;SDS011;7770;52.158;5.372;2022-09-09T06:25:48;14.37;;;10.50;;
15340;SDS011;7770;52.158;5.372;2022-09-09T06:28:36;13.53;;;10.10;;
15340;SDS011;7770;52.158;5.372;2022-09-09T06:31:23;11.73;;;9.20;;
15340;SDS011;7770;52.158;5.372;2022-09-09T06:34:15;13.13;;;9.03;;
15340;SDS011;7770;52.158;5.372;2022-09-09T06:37:01;13.73;;;8.87;;
15340;SDS011;7770;52.158;5.372;2022-09-09T06:39:47;12.07;;;8.37;;
15340;SDS011;7770;52.158;5.372;2022-09-09T06:42:33;11.37;;;7.90;;
15340;SDS011;7770;52.158;5.372;2022-09-09T06:45:19;11.50;;;7.53;;
15340;SDS011;7770;52.158;5.372;2022-09-09T06:48:05;13.67;;;7.03;;
15340;SDS011;7770;52.158;5.372;2022-09-09T06:50:59;11.67;;;6.27;;
15340;SDS011;7770;52.158;5.372;2022-09-09T06:53:52;10.97;;;6.10;;
15340;SDS011;7770;52.158;5.372;2022-09-09T06:56:41;10.23;;;6.33;;
15340;SDS011;7770;52.158;5.372;2022-09-09T06:59:28;11.70;;;5.60;;
15340;SDS011;7770;52.158;5.372;2022-09-09T07:02:16;10.20;;;5.47;;
15340;SDS011;7770;52.158;5.372;2022-09-09T07:05:02;9.93;;;5.83;;
15340;SDS011;7770;52.158;5.372;2022-09-09T07:07:48;8.97;;;5.90;;
15340;SDS011;7770;52.158;5.372;2022-09-09T07:10:34;8.60;;;5.07;;
15340;SDS011;7770;52.158;5.372;2022-09-09T07:13:24;9.80;;;4.83;;
15340;SDS011;7770;52.158;5.372;2022-09-09T07:16:12;12.47;;;5.07;;
15340;SDS011;7770;52.158;5.372;2022-09-09T07:19:03;9.83;;;4.73;;
15340;SDS011;7770;52.158;5.372;2022-09-09T07:21:50;9.33;;;4.90;;
15340;SDS011;7770;52.158;5.372;2022-09-09T07:24:36;8.53;;;5.07;;
15340;SDS011;7770;52.158;5.372;2022-09-09T07:27:22;7.03;;;5.10;;
15340;SDS011;7770;52.158;5.372;2022-09-09T07:30:08;7.80;;;5.30;;
15340;SDS011;7770;52.158;5.372;2022-09-09T07:32:55;10.67;;;5.50;;
15340;SDS011;7770;52.158;5.372;2022-09-09T07:35:42;9.30;;;5.27;;
15340;SDS011;7770;52.158;5.372;2022-09-09T07:38:28;9.10;;;5.10;;
15340;SDS011;7770;52.158;5.372;2022-09-09T07:41:16;9.00;;;5.67;;
15340;SDS011;7770;52.158;5.372;2022-09-09T07:44:08;11.27;;;4.73;;
15340;SDS011;7770;52.158;5.372;2022-09-09T07:47:00;8.93;;;4.50;;
15340;SDS011;7770;52.158;5.372;2022-09-09T07:49:48;9.10;;;5.00;;
15340;SDS011;7770;52.158;5.372;2022-09-09T07:52:35;10.63;;;4.93;;
15340;SDS011;7770;52.158;5.372;2022-09-09T07:55:24;10.17;;;4.70;;
15340;SDS011;7770;52.158;5.372;2022-09-09T07:58:11;9.70;;;4.30;;
15340;SDS011;7770;52.158;5.372;2022-09-09T08:00:57;8.63;;;4.97;;
15340;SDS011;7770;52.158;5.372;2022-09-09T08:03:44;10.90;;;4.60;;
15340;SDS011;7770;52.158;5.372;2022-09-09T08:06:32;7.83;;;4.30;;
15340;SDS011;7770;52.158;5.372;2022-09-09T08:09:22;7.80;;;4.43;;
15340;SDS011;7770;52.158;5.372;2022-09-09T08:12:13;11.30;;;5.00;;
15340;SDS011;7770;52.158;5.372;2022-09-09T08:15:00;9.97;;;4.87;;
15340;SDS011;7770;52.158;5.372;2022-09-09T08:17:46;10.90;;;5.30;;
15340;SDS011;7770;52.158;5.372;2022-09-09T08:20:32;11.37;;;4.93;;
15340;SDS011;7770;52.158;5.372;2022-09-09T08:23:18;8.57;;;4.83;;
15340;SDS011;7770;52.158;5.372;2022-09-09T08:26:05;10.03;;;5.00;;
15340;SDS011;7770;52.158;5.372;2022-09-09T08:28:59;9.77;;;4.60;;
15340;SDS011;7770;52.158;5.372;2022-09-09T08:31:50;8.47;;;4.60;;
15340;SDS011;7770;52.158;5.372;2022-09-09T08:34:45;9.70;;;4.80;;
15340;SDS011;7770;52.158;5.372;2022-09-09T08:37:31;13.10;;;5.13;;
15340;SDS011;7770;52.158;5.372;2022-09-09T08:40:18;10.77;;;5.30;;
15340;SDS011;7770;52.158;5.372;2022-09-09T08:43:13;10.03;;;5.20;;
15340;SDS011;7770;52.158;5.372;2022-09-09T08:46:09;8.93;;;4.63;;
15340;SDS011;7770;52.158;5.372;2022-09-09T08:49:13;8.83;;;4.33;;
15340;SDS011;7770;52.158;5.372;2022-09-09T08:52:39;7.73;;;4.00;;
15340;SDS011;7770;52.158;5.372;2022-09-09T08:58:39;13.67;;;4.73;;
15340;SDS011;7770;52.158;5.372;2022-09-09T09:01:39;9.93;;;4.83;;
15340;SDS011;7770;52.158;5.372;2022-09-09T09:05:13;9.30;;;4.70;;
15340;SDS011;7770;52.158;5.372;2022-09-09T09:11:02;7.77;;;4.10;;
15340;SDS011;7770;52.158;5.372;2022-09-09T09:13:51;9.87;;;4.90;;
15340;SDS011;7770;52.158;5.372;2022-09-09T09:19:44;12.17;;;4.40;;
15340;SDS011;7770;52.158;5.372;2022-09-09T09:22:36;10.43;;;4.67;;
15340;SDS011;7770;52.158;5.372;2022-09-09T09:25:36;10.63;;;4.97;;
15340;SDS011;7770;52.158;5.372;2022-09-09T09:28:30;11.00;;;5.10;;
15340;SDS011;7770;52.158;5.372;2022-09-09T09:31:18;12.37;;;5.00;;
15340;SDS011;7770;52.158;5.372;2022-09-09T09:34:07;12.83;;;4.60;;
15340;SDS011;7770;52.158;5.372;2022-09-09T09:36:56;10.83;;;4.90;;
15340;SDS011;7770;52.158;5.372;2022-09-09T09:39:46;8.57;;;4.37;;
15340;SDS011;7770;52.158;5.372;2022-09-09T09:42:34;9.07;;;4.80;;
15340;SDS011;7770;52.158;5.372;2022-09-09T09:45:26;10.83;;;4.60;;
15340;SDS011;7770;52.158;5.372;2022-09-09T09:48:31;11.27;;;4.53;;
15340;SDS011;7770;52.158;5.372;2022-09-09T09:51:18;9.90;;;4.30;;
15340;SDS011;7770;52.158;5.372;2022-09-09T09:54:18;7.73;;;4.67;;
15340;SDS011;7770;52.158;5.372;2022-09-09T09:57:16;8.97;;;4.57;;
15340;SDS011;7770;52.158;5.372;2022-09-09T10:03:12;9.70;;;5.33;;
15340;SDS011;7770;52.158;5.372;2022-09-09T10:06:14;11.20;;;5.60;;
15340;SDS011;7770;52.158;5.372;2022-09-09T10:09:00;10.40;;;5.43;;
15340;SDS011;7770;52.158;5.372;2022-09-09T10:17:58;11.67;;;5.70;;
15340;SDS011;7770;52.158;5.372;2022-09-09T10:21:06;10.27;;;5.63;;
15340;SDS011;7770;52.158;5.372;2022-09-09T10:33:37;10.30;;;4.70;;
15340;SDS011;7770;52.158;5.372;2022-09-09T10:36:52;10.17;;;5.07;;
15340;SDS011;7770;52.158;5.372;2022-09-09T10:39:38;10.17;;;5.40;;
15340;SDS011;7770;52.158;5.372;2022-09-09T10:42:29;11.53;;;5.83;;
15340;SDS011;7770;52.158;5.372;2022-09-09T10:45:23;8.67;;;5.40;;
15340;SDS011;7770;52.158;5.372;2022-09-09T10:55:08;10.03;;;5.50;;
15340;SDS011;7770;52.158;5.372;2022-09-09T10:57:59;10.00;;;5.33;;
15340;SDS011;7770;52.158;5.372;2022-09-09T11:00:51;9.80;;;5.20;;
15340;SDS011;7770;52.158;5.372;2022-09-09T11:03:43;10.80;;;5.47;;
15340;SDS011;7770;52.158;5.372;2022-09-09T11:06:37;7.03;;;4.63;;
15340;SDS011;7770;52.158;5.372;2022-09-09T11:09:28;7.47;;;4.17;;
15340;SDS011;7770;52.158;5.372;2022-09-09T11:12:19;5.73;;;3.90;;
15340;SDS011;7770;52.158;5.372;2022-09-09T11:15:14;9.10;;;4.40;;
15340;SDS011;7770;52.158;5.372;2022-09-09T11:18:13;6.67;;;4.07;;
15340;SDS011;7770;52.158;5.372;2022-09-09T11:21:08;7.33;;;3.77;;
15340;SDS011;7770;52.158;5.372;2022-09-09T11:24:06;7.90;;;4.40;;
15340;SDS011;7770;52.158;5.372;2022-09-09T11:27:12;9.03;;;4.77;;
15340;SDS011;7770;52.158;5.372;2022-09-09T11:30:22;8.13;;;4.63;;
15340;SDS011;7770;52.158;5.372;2022-09-09T11:33:49;8.17;;;4.87;;
15340;SDS011;7770;52.158;5.372;2022-09-09T11:36:54;6.97;;;4.33;;
15340;SDS011;7770;52.158;5.372;2022-09-09T11:40:08;9.47;;;4.40;;
15340;SDS011;7770;52.158;5.372;2022-09-09T11:43:13;6.27;;;4.47;;
15340;SDS011;7770;52.158;5.372;2022-09-09T11:46:15;7.73;;;4.27;;
15340;SDS011;7770;52.158;5.372;2022-09-09T11:49:06;7.07;;;3.90;;
15340;SDS011;7770;52.158;5.372;2022-09-09T11:52:23;8.67;;;4.53;;
15340;SDS011;7770;52.158;5.372;2022-09-09T11:55:28;9.10;;;4.27;;
15340;SDS011;7770;52.158;5.372;2022-09-09T11:58:21;7.23;;;4.70;;
15340;SDS011;7770;52.158;5.372;2022-09-09T12:01:15;6.07;;;4.67;;
15340;SDS011;7770;52.158;5.372;2022-09-09T12:10:26;9.57;;;5.17;;
15340;SDS011;7770;52.158;5.372;2022-09-09T12:13:19;7.43;;;4.13;;
15340;SDS011;7770;52.158;5.372;2022-09-09T12:16:26;6.33;;;4.00;;
15340;SDS011;7770;52.158;5.372;2022-09-09T12:19:21;7.30;;;4.77;;
15340;SDS011;7770;52.158;5.372;2022-09-09T12:22:11;7.80;;;4.80;;
15340;SDS011;7770;52.158;5.372;2022-09-09T12:34:50;8.40;;;6.53;;
15340;SDS011;7770;52.158;5.372;2022-09-09T12:37:46;10.17;;;6.50;;
15340;SDS011;7770;52.158;5.372;2022-09-09T12:40:53;7.30;;;5.80;;
15340;SDS011;7770;52.158;5.372;2022-09-09T12:43:43;6.80;;;5.40;;
15340;SDS011;7770;52.158;5.372;2022-09-09T12:49:31;10.03;;;5.20;;
15340;SDS011;7770;52.158;5.372;2022-09-09T12:52:31;7.67;;;5.10;;
15340;SDS011;7770;52.158;5.372;2022-09-09T12:55:23;7.43;;;5.07;;
15340;SDS011;7770;52.158;5.372;2022-09-09T12:58:15;9.47;;;5.50;;
15340;SDS011;7770;52.158;5.372;2022-09-09T13:01:03;11.83;;;6.10;;
15340;SDS011;7770;52.158;5.372;2022-09-09T13:03:51;7.87;;;5.23;;
15340;SDS011;7770;52.158;5.372;2022-09-09T13:06:38;8.43;;;4.90;;
15340;SDS011;7770;52.158;5.372;2022-09-09T13:09:24;7.20;;;4.80;;
15340;SDS011;7770;52.158;5.372;2022-09-09T13:12:14;6.77;;;4.13;;
15340;SDS011;7770;52.158;5.372;2022-09-09T13:15:04;7.93;;;4.47;;
15340;SDS011;7770;52.158;5.372;2022-09-09T13:18:07;6.50;;;4.47;;
15340;SDS011;7770;52.158;5.372;2022-09-09T13:20:58;6.07;;;3.93;;
15340;SDS011;7770;52.158;5.372;2022-09-09T13:23:49;5.73;;;4.17;;
15340;SDS011;7770;52.158;5.372;2022-09-09T13:26:37;7.33;;;3.90;;
15340;SDS011;7770;52.158;5.372;2022-09-09T13:29:23;6.20;;;4.33;;
15340;SDS011;7770;52.158;5.372;2022-09-09T13:32:16;5.20;;;3.97;;
15340;SDS011;7770;52.158;5.372;2022-09-09T13:35:02;7.73;;;4.40;;
15340;SDS011;7770;52.158;5.372;2022-09-09T13:37:49;5.23;;;4.37;;
15340;SDS011;7770;52.158;5.372;2022-09-09T13:40:35;7.77;;;4.57;;
15340;SDS011;7770;52.158;5.372;2022-09-09T13:43:23;7.40;;;4.80;;
15340;SDS011;7770;52.158;5.372;2022-09-09T13:49:21;7.77;;;5.17;;
15340;SDS011;7770;52.158;5.372;2022-09-09T13:52:09;7.93;;;5.37;;
15340;SDS011;7770;52.158;5.372;2022-09-09T13:55:02;7.40;;;5.40;;
15340;SDS011;7770;52.158;5.372;2022-09-09T13:57:58;10.23;;;5.43;;
15340;SDS011;7770;52.158;5.372;2022-09-09T14:00:50;7.63;;;5.00;;
15340;SDS011;7770;52.158;5.372;2022-09-09T14:03:38;7.60;;;5.10;;
15340;SDS011;7770;52.158;5.372;2022-09-09T14:06:24;7.27;;;5.20;;
15340;SDS011;7770;52.158;5.372;2022-09-09T14:09:11;7.00;;;5.13;;
15340;SDS011;7770;52.158;5.372;2022-09-09T14:12:00;7.73;;;5.30;;
15340;SDS011;7770;52.158;5.372;2022-09-09T14:14:47;8.00;;;5.10;;
15340;SDS011;7770;52.158;5.372;2022-09-09T14:17:33;7.63;;;5.10;;
15340;SDS011;7770;52.158;5.372;2022-09-09T14:20:21;7.37;;;4.67;;
15340;SDS011;7770;52.158;5.372;2022-09-09T14:23:09;7.37;;;5.13;;
15340;SDS011;7770;52.158;5.372;2022-09-09T14:25:57;7.77;;;5.00;;
15340;SDS011;7770;52.158;5.372;2022-09-09T14:28:43;7.53;;;5.67;;
15340;SDS011;7770;52.158;5.372;2022-09-09T14:31:30;6.83;;;5.63;;
15340;SDS011;7770;52.158;5.372;2022-09-09T14:34:16;7.43;;;5.30;;
15340;SDS011;7770;52.158;5.372;2022-09-09T14:37:02;9.40;;;6.03;;
15340;SDS011;7770;52.158;5.372;2022-09-09T14:39:48;6.97;;;5.87;;
15340;SDS011;7770;52.158;5.372;2022-09-09T14:42:35;7.80;;;6.37;;
15340;SDS011;7770;52.158;5.372;2022-09-09T14:45:22;9.17;;;7.00;;
15340;SDS011;7770;52.158;5.372;2022-09-09T14:48:10;10.13;;;7.30;;
15340;SDS011;7770;52.158;5.372;2022-09-09T14:50:56;8.37;;;7.30;;
15340;SDS011;7770;52.158;5.372;2022-09-09T14:53:42;10.10;;;7.97;;
15340;SDS011;7770;52.158;5.372;2022-09-09T14:56:30;11.57;;;8.40;;
15340;SDS011;7770;52.158;5.372;2022-09-09T14:59:19;11.47;;;9.03;;
15340;SDS011;7770;52.158;5.372;2022-09-09T15:02:07;14.77;;;11.67;;
15340;SDS011;7770;52.158;5.372;2022-09-09T15:04:54;13.50;;;9.37;;
15340;SDS011;7770;52.158;5.372;2022-09-09T15:07:42;12.40;;;9.17;;
15340;SDS011;7770;52.158;5.372;2022-09-09T15:10:28;10.63;;;6.93;;
15340;SDS011;7770;52.158;5.372;2022-09-09T15:13:16;9.13;;;6.53;;
15340;SDS011;7770;52.158;5.372;2022-09-09T15:16:13;7.93;;;6.20;;
15340;SDS011;7770;52.158;5.372;2022-09-09T15:19:01;6.47;;;5.47;;
15340;SDS011;7770;52.158;5.372;2022-09-09T15:21:48;7.17;;;5.90;;
15340;SDS011;7770;52.158;5.372;2022-09-09T15:24:34;5.40;;;4.20;;
15340;SDS011;7770;52.158;5.372;2022-09-09T15:27:20;4.67;;;3.80;;
15340;SDS011;7770;52.158;5.372;2022-09-09T15:30:08;5.20;;;3.87;;
15340;SDS011;7770;52.158;5.372;2022-09-09T15:32:55;5.57;;;3.93;;
15340;SDS011;7770;52.158;5.372;2022-09-09T15:35:41;5.93;;;3.70;;
15340;SDS011;7770;52.158;5.372;2022-09-09T15:38:27;5.50;;;3.80;;
15340;SDS011;7770;52.158;5.372;2022-09-09T15:41:13;4.20;;;3.10;;
15340;SDS011;7770;52.158;5.372;2022-09-09T15:44:00;5.77;;;3.40;;
15340;SDS011;7770;52.158;5.372;2022-09-09T15:46:50;4.20;;;3.03;;
15340;SDS011;7770;52.158;5.372;2022-09-09T15:49:41;5.17;;;3.50;;
15340;SDS011;7770;52.158;5.372;2022-09-09T15:52:27;5.23;;;3.80;;
15340;SDS011;7770;52.158;5.372;2022-09-09T15:55:14;6.73;;;3.70;;
15340;SDS011;7770;52.158;5.372;2022-09-09T15:58:00;5.07;;;4.53;;
15340;SDS011;7770;52.158;5.372;2022-09-09T16:00:46;5.63;;;4.20;;
15340;SDS011;7770;52.158;5.372;2022-09-09T16:03:36;6.23;;;4.50;;
15340;SDS011;7770;52.158;5.372;2022-09-09T16:06:26;5.30;;;4.80;;
15340;SDS011;7770;52.158;5.372;2022-09-09T16:09:14;6.33;;;4.50;;
15340;SDS011;7770;52.158;5.372;2022-09-09T16:12:00;6.83;;;4.97;;
15340;SDS011;7770;52.158;5.372;2022-09-09T16:14:51;5.10;;;4.60;;
15340;SDS011;7770;52.158;5.372;2022-09-09T16:17:37;5.03;;;4.10;;
15340;SDS011;7770;52.158;5.372;2022-09-09T16:20:23;5.87;;;4.00;;
15340;SDS011;7770;52.158;5.372;2022-09-09T16:23:10;4.00;;;3.63;;
15340;SDS011;7770;52.158;5.372;2022-09-09T16:25:56;6.83;;;4.73;;
15340;SDS011;7770;52.158;5.372;2022-09-09T16:28:43;5.87;;;4.03;;
15340;SDS011;7770;52.158;5.372;2022-09-09T16:31:31;4.97;;;3.93;;
15340;SDS011;7770;52.158;5.372;2022-09-09T16:34:18;6.47;;;3.73;;
15340;SDS011;7770;52.158;5.372;2022-09-09T16:37:05;6.63;;;3.83;;
15340;SDS011;7770;52.158;5.372;2022-09-09T16:39:51;5.43;;;3.50;;
15340;SDS011;7770;52.158;5.372;2022-09-09T16:42:37;5.47;;;3.77;;
15340;SDS011;7770;52.158;5.372;2022-09-09T16:45:23;5.27;;;3.60;;
15340;SDS011;7770;52.158;5.372;2022-09-09T16:48:11;4.33;;;3.87;;
15340;SDS011;7770;52.158;5.372;2022-09-09T16:51:01;7.43;;;3.93;;
15340;SDS011;7770;52.158;5.372;2022-09-09T16:53:51;5.70;;;3.93;;
15340;SDS011;7770;52.158;5.372;2022-09-09T16:56:39;4.80;;;4.10;;
15340;SDS011;7770;52.158;5.372;2022-09-09T16:59:27;7.80;;;4.50;;
15340;SDS011;7770;52.158;5.372;2022-09-09T17:02:13;5.60;;;4.47;;
15340;SDS011;7770;52.158;5.372;2022-09-09T17:04:59;6.57;;;4.63;;
15340;SDS011;7770;52.158;5.372;2022-09-09T17:07:45;7.37;;;5.00;;
15340;SDS011;7770;52.158;5.372;2022-09-09T17:10:31;7.40;;;5.40;;
15340;SDS011;7770;52.158;5.372;2022-09-09T17:13:17;6.00;;;5.23;;
15340;SDS011;7770;52.158;5.372;2022-09-09T17:16:04;7.40;;;4.83;;
15340;SDS011;7770;52.158;5.372;2022-09-09T17:18:51;8.17;;;5.57;;
15340;SDS011;7770;52.158;5.372;2022-09-09T17:21:37;8.03;;;5.60;;
15340;SDS011;7770;52.158;5.372;2022-09-09T17:24:25;9.50;;;6.63;;
15340;SDS011;7770;52.158;5.372;2022-09-09T17:27:12;7.40;;;6.43;;
15340;SDS011;7770;52.158;5.372;2022-09-09T17:29:58;9.87;;;5.70;;
15340;SDS011;7770;52.158;5.372;2022-09-09T17:32:44;7.67;;;6.10;;
15340;SDS011;7770;52.158;5.372;2022-09-09T17:35:34;9.80;;;6.73;;
15340;SDS011;7770;52.158;5.372;2022-09-09T17:38:24;8.90;;;6.80;;
15340;SDS011;7770;52.158;5.372;2022-09-09T17:41:23;7.47;;;6.57;;
15340;SDS011;7770;52.158;5.372;2022-09-09T17:44:13;7.77;;;6.80;;
15340;SDS011;7770;52.158;5.372;2022-09-09T17:46:59;7.63;;;6.80;;
15340;SDS011;7770;52.158;5.372;2022-09-09T17:49:46;8.00;;;6.27;;
15340;SDS011;7770;52.158;5.372;2022-09-09T17:52:32;7.83;;;6.90;;
15340;SDS011;7770;52.158;5.372;2022-09-09T17:55:18;10.77;;;7.30;;
15340;SDS011;7770;52.158;5.372;2022-09-09T17:58:04;11.07;;;7.50;;
15340;SDS011;7770;52.158;5.372;2022-09-09T18:00:50;9.20;;;7.50;;
15340;SDS011;7770;52.158;5.372;2022-09-09T18:03:36;9.53;;;7.30;;
15340;SDS011;7770;52.158;5.372;2022-09-09T18:06:25;11.50;;;7.83;;
15340;SDS011;7770;52.158;5.372;2022-09-09T18:09:22;10.20;;;7.50;;
15340;SDS011;7770;52.158;5.372;2022-09-09T18:12:10;8.03;;;6.80;;
15340;SDS011;7770;52.158;5.372;2022-09-09T18:14:56;8.93;;;6.73;;
15340;SDS011;7770;52.158;5.372;2022-09-09T18:17:42;8.40;;;7.10;;
15340;SDS011;7770;52.158;5.372;2022-09-09T18:20:28;8.37;;;7.00;;
15340;SDS011;7770;52.158;5.372;2022-09-09T18:23:14;7.57;;;6.67;;
15340;SDS011;7770;52.158;5.372;2022-09-09T18:26:00;9.03;;;6.77;;
15340;SDS011;7770;52.158;5.372;2022-09-09T18:28:52;7.70;;;6.37;;
15340;SDS011;7770;52.158;5.372;2022-09-09T18:31:41;8.40;;;6.43;;
15340;SDS011;7770;52.158;5.372;2022-09-09T18:34:28;8.20;;;7.00;;
15340;SDS011;7770;52.158;5.372;2022-09-09T18:37:15;10.03;;;6.30;;